createdAt,value
2018-07-15T00:02:02.210Z,17.71
2018-07-15T00:04:29.540Z,17.66
2018-07-15T00:06:57.146Z,17.64
2018-07-15T00:09:25.236Z,17.61
2018-07-15T00:11:53.347Z,17.59
2018-07-15T00:14:27.431Z,17.58
2018-07-15T00:16:54.729Z,17.50
2018-07-15T00:19:21.994Z,17.49
2018-07-15T00:21:49.845Z,17.49
2018-07-15T00:24:17.293Z,17.48
2018-07-15T00:26:44.536Z,17.45
2018-07-15T00:29:11.737Z,17.41
2018-07-15T00:31:39.588Z,17.38
2018-07-15T00:34:06.839Z,17.34
2018-07-15T00:36:34.072Z,17.33
2018-07-15T00:39:01.994Z,17.30
2018-07-15T00:41:29.382Z,17.28
2018-07-15T00:43:56.667Z,17.23
2018-07-15T00:46:23.999Z,17.17
2018-07-15T00:48:51.310Z,17.18
2018-07-15T00:51:18.601Z,17.13
2018-07-15T00:53:45.836Z,17.09
2018-07-15T00:56:13.067Z,17.08
2018-07-15T00:58:40.281Z,17.07
2018-07-15T01:01:07.642Z,17.03
2018-07-15T01:03:35.520Z,17.02
2018-07-15T01:06:02.794Z,16.91
2018-07-15T01:08:30.584Z,16.99
2018-07-15T01:10:57.874Z,16.89
2018-07-15T01:13:25.113Z,16.93
2018-07-15T01:15:52.679Z,16.92
2018-07-15T01:18:20.436Z,16.90
2018-07-15T01:20:47.702Z,16.86
2018-07-15T01:23:15.174Z,16.84
2018-07-15T01:25:42.470Z,16.79
2018-07-15T01:28:10.017Z,16.68
2018-07-15T01:30:37.224Z,16.76
2018-07-15T01:33:04.887Z,16.73
2018-07-15T01:35:32.161Z,16.72
2018-07-15T01:37:59.421Z,16.70
2018-07-15T01:40:26.727Z,16.68
2018-07-15T01:42:54.050Z,16.64
2018-07-15T01:45:21.332Z,16.63
2018-07-15T01:47:48.892Z,16.63
2018-07-15T01:50:16.297Z,16.60
2018-07-15T01:52:43.709Z,16.57
2018-07-15T01:55:10.996Z,16.56
2018-07-15T01:57:38.301Z,16.55
2018-07-15T02:00:05.778Z,16.56
2018-07-15T02:02:33.377Z,16.43
2018-07-15T02:05:00.634Z,16.51
2018-07-15T02:07:27.865Z,16.47
2018-07-15T02:09:55.140Z,16.45
2018-07-15T02:12:22.409Z,16.44
2018-07-15T02:14:49.658Z,16.39
2018-07-15T02:17:16.906Z,16.35
2018-07-15T02:19:44.114Z,16.33
2018-07-15T02:22:11.444Z,16.33
2018-07-15T02:24:38.710Z,16.28
2018-07-15T02:27:06.127Z,16.28
2018-07-15T02:29:33.324Z,16.27
2018-07-15T02:32:00.825Z,16.23
2018-07-15T02:34:28.057Z,16.25
2018-07-15T02:36:55.341Z,16.21
2018-07-15T02:39:22.726Z,16.16
2018-07-15T02:41:49.965Z,16.17
2018-07-15T02:44:17.330Z,16.10
2018-07-15T02:46:44.558Z,16.08
2018-07-15T02:49:12.271Z,16.09
2018-07-15T02:51:39.739Z,16.07
2018-07-15T02:54:07.351Z,16.06
2018-07-15T02:56:34.590Z,16.06
2018-07-15T02:59:01.836Z,16.01
2018-07-15T03:01:29.302Z,16.00
2018-07-15T03:03:56.626Z,15.99
2018-07-15T03:06:23.847Z,15.93
2018-07-15T03:08:51.049Z,15.90
2018-07-15T03:11:19.330Z,15.89
2018-07-15T03:13:46.536Z,15.89
2018-07-15T03:16:13.975Z,15.88
2018-07-15T03:18:41.517Z,15.85
2018-07-15T03:21:09.090Z,15.85
2018-07-15T03:23:36.286Z,15.83
2018-07-15T03:26:04.219Z,15.83
2018-07-15T03:28:31.717Z,15.80
2018-07-15T03:30:58.968Z,15.79
2018-07-15T03:33:26.249Z,15.77
2018-07-15T03:35:53.461Z,15.79
2018-07-15T03:38:20.713Z,15.77
2018-07-15T03:40:47.924Z,15.78
2018-07-15T03:43:15.327Z,15.76
2018-07-15T03:45:42.807Z,15.73
2018-07-15T03:48:10.120Z,15.74
2018-07-15T03:50:37.766Z,15.71
2018-07-15T03:53:05.038Z,15.72
2018-07-15T03:55:32.405Z,15.71
2018-07-15T03:58:00.699Z,15.70
2018-07-15T04:00:28.002Z,15.69
2018-07-15T04:02:55.426Z,15.69
2018-07-15T04:05:23.273Z,15.70
2018-07-15T04:07:50.529Z,15.70
2018-07-15T04:10:17.794Z,15.63
2018-07-15T04:12:45.348Z,15.72
2018-07-15T04:15:12.800Z,15.73
2018-07-15T04:17:40.872Z,15.73
2018-07-15T04:20:08.404Z,15.71
2018-07-15T04:22:35.650Z,15.73
2018-07-15T04:25:02.903Z,15.73
2018-07-15T04:27:30.162Z,15.69
2018-07-15T04:29:58.138Z,15.77
2018-07-15T04:32:25.462Z,15.82
2018-07-15T04:34:53.709Z,15.82
2018-07-15T04:37:20.930Z,15.83
2018-07-15T04:39:48.202Z,15.85
2018-07-15T04:42:15.552Z,15.89
2018-07-15T04:44:42.798Z,15.88
2018-07-15T04:47:10.049Z,15.85
2018-07-15T04:49:37.465Z,15.96
2018-07-15T04:52:04.793Z,15.94
2018-07-15T04:54:32.034Z,16.02
2018-07-15T04:56:59.269Z,16.05
2018-07-15T04:59:26.557Z,16.11
2018-07-15T05:01:53.795Z,16.17
2018-07-15T05:04:21.028Z,16.20
2018-07-15T05:06:49.045Z,16.27
2018-07-15T05:09:16.394Z,16.30
2018-07-15T05:11:43.681Z,16.32
2018-07-15T05:14:10.933Z,16.45
2018-07-15T05:16:38.224Z,16.55
2018-07-15T05:19:05.583Z,16.61
2018-07-15T05:21:33.265Z,16.70
2018-07-15T05:24:00.505Z,16.77
2018-07-15T05:26:27.797Z,16.82
2018-07-15T05:28:55.173Z,16.94
2018-07-15T05:31:22.493Z,17.04
2018-07-15T05:33:49.862Z,17.12
2018-07-15T05:36:17.100Z,17.25
2018-07-15T05:38:44.284Z,17.32
2018-07-15T05:41:11.565Z,17.39
2018-07-15T05:43:38.822Z,17.51
2018-07-15T05:46:06.114Z,17.63
2018-07-15T05:48:33.361Z,17.76
2018-07-15T05:51:00.596Z,17.82
2018-07-15T05:53:27.970Z,17.91
2018-07-15T05:55:55.220Z,18.02
2018-07-15T05:58:22.709Z,18.12
2018-07-15T06:00:50.233Z,18.23
2018-07-15T06:03:17.653Z,18.30
2018-07-15T06:05:46.054Z,18.43
2018-07-15T06:08:13.429Z,18.53
2018-07-15T06:10:41.037Z,18.68
2018-07-15T06:13:15.407Z,18.79
2018-07-15T06:15:43.328Z,18.85
2018-07-15T06:18:10.733Z,18.88
2018-07-15T06:20:38.244Z,19.02
2018-07-15T06:23:05.575Z,19.21
2018-07-15T06:25:32.983Z,19.36
2018-07-15T06:28:00.239Z,19.46
2018-07-15T06:30:27.539Z,19.57
2018-07-15T06:32:54.917Z,19.64
2018-07-15T06:35:22.492Z,19.75
2018-07-15T06:37:50.108Z,19.80
2018-07-15T06:40:17.378Z,19.92
2018-07-15T06:42:44.662Z,20.10
2018-07-15T06:45:11.861Z,20.24
2018-07-15T06:47:39.252Z,20.34
2018-07-15T06:50:06.716Z,20.42
2018-07-15T06:52:34.149Z,20.59
2018-07-15T06:55:01.450Z,20.71
2018-07-15T06:57:29.137Z,20.72
2018-07-15T06:59:56.460Z,20.87
2018-07-15T07:02:23.731Z,20.93
2018-07-15T07:04:51.092Z,21.06
2018-07-15T07:07:18.423Z,21.16
2018-07-15T07:09:45.695Z,21.32
2018-07-15T07:12:13.283Z,21.41
2018-07-15T07:14:40.645Z,21.62
2018-07-15T07:17:08.031Z,21.70
2018-07-15T07:19:35.467Z,21.91
2018-07-15T07:22:02.749Z,22.04
2018-07-15T07:24:30.140Z,22.19
2018-07-15T07:26:57.420Z,22.33
2018-07-15T07:29:24.798Z,22.46
2018-07-15T07:31:52.195Z,22.70
2018-07-15T07:34:19.546Z,22.91
2018-07-15T07:36:46.835Z,23.36
2018-07-15T07:39:20.823Z,23.89
2018-07-15T07:41:48.130Z,24.51
2018-07-15T07:44:15.508Z,26.67
2018-07-15T07:46:43.639Z,31.26
2018-07-15T07:49:11.025Z,29.51
2018-07-15T07:51:38.341Z,28.88
2018-07-15T07:54:05.717Z,29.31
2018-07-15T07:56:33.038Z,32.45
2018-07-15T07:59:00.489Z,36.56
2018-07-15T08:01:28.519Z,38.49
2018-07-15T08:03:55.762Z,39.49
2018-07-15T08:06:23.075Z,39.86
2018-07-15T08:08:50.313Z,38.28
2018-07-15T08:11:17.565Z,36.11
2018-07-15T08:13:44.870Z,35.95
2018-07-15T08:16:12.306Z,35.40
2018-07-15T08:18:39.667Z,34.69
2018-07-15T08:21:06.911Z,33.71
2018-07-15T08:23:34.174Z,33.78
2018-07-15T08:26:01.468Z,34.96
2018-07-15T08:28:28.964Z,33.93
2018-07-15T08:31:16.619Z,33.34
2018-07-15T08:33:43.838Z,33.44
2018-07-15T08:36:11.522Z,32.83
2018-07-15T08:38:38.977Z,33.72
2018-07-15T08:41:06.211Z,33.47
2018-07-15T08:43:33.451Z,34.05
2018-07-15T08:46:00.880Z,34.59
2018-07-15T08:48:28.192Z,34.85
2018-07-15T08:50:55.555Z,34.27
2018-07-15T08:53:22.813Z,32.98
2018-07-15T08:55:50.205Z,31.55
2018-07-15T08:58:17.614Z,31.11
2018-07-15T09:00:44.872Z,31.12
2018-07-15T09:03:12.241Z,30.34
2018-07-15T09:05:39.533Z,29.69
2018-07-15T09:08:07.047Z,29.29
2018-07-15T09:10:34.462Z,28.86
2018-07-15T09:13:01.733Z,28.74
2018-07-15T09:15:28.956Z,28.48
2018-07-15T09:17:56.236Z,28.09
2018-07-15T09:20:24.179Z,27.78
2018-07-15T09:22:51.478Z,27.58
2018-07-15T09:25:18.771Z,27.52
2018-07-15T09:27:46.024Z,27.53
2018-07-15T09:30:13.385Z,27.33
2018-07-15T09:32:40.633Z,27.10
2018-07-15T09:35:08.621Z,27.00
2018-07-15T09:37:35.876Z,27.14
2018-07-15T09:40:03.110Z,27.33
2018-07-15T09:42:30.387Z,27.51
2018-07-15T09:44:57.727Z,27.34
2018-07-15T09:47:25.029Z,27.28
2018-07-15T09:49:52.314Z,27.40
2018-07-15T09:52:19.676Z,27.53
2018-07-15T09:54:47.167Z,27.60
2018-07-15T09:57:14.508Z,27.66
2018-07-15T09:59:41.927Z,27.91
2018-07-15T10:02:09.371Z,28.78
2018-07-15T10:04:36.644Z,29.60
2018-07-15T10:07:04.063Z,29.94
2018-07-15T10:09:31.304Z,30.11
2018-07-15T10:11:59.228Z,30.37
2018-07-15T10:14:26.564Z,31.13
2018-07-15T10:16:53.788Z,31.81
2018-07-15T10:19:21.047Z,32.59
2018-07-15T10:21:48.282Z,33.31
2018-07-15T10:24:15.663Z,33.67
2018-07-15T10:26:43.254Z,34.10
2018-07-15T10:29:10.446Z,34.46
2018-07-15T10:31:37.731Z,34.77
2018-07-15T10:34:05.008Z,35.16
2018-07-15T10:36:32.241Z,35.17
2018-07-15T10:38:59.626Z,34.98
2018-07-15T10:41:26.864Z,35.24
2018-07-15T10:43:54.909Z,35.19
2018-07-15T10:46:22.138Z,35.54
2018-07-15T10:48:50.518Z,35.39
2018-07-15T10:51:17.816Z,35.53
2018-07-15T10:53:45.117Z,35.55
2018-07-15T10:56:12.472Z,35.81
2018-07-15T10:58:40.306Z,35.76
2018-07-15T11:01:07.756Z,35.50
2018-07-15T11:03:34.977Z,35.62
2018-07-15T11:06:02.267Z,35.55
2018-07-15T11:08:30.210Z,35.55
2018-07-15T11:10:57.478Z,35.09
2018-07-15T11:13:24.969Z,35.60
2018-07-15T11:15:52.229Z,35.76
2018-07-15T11:18:19.689Z,35.69
2018-07-15T11:20:46.949Z,35.48
2018-07-15T11:23:14.267Z,36.01
2018-07-15T11:25:41.682Z,36.33
2018-07-15T11:28:08.914Z,36.41
2018-07-15T11:30:36.228Z,36.05
2018-07-15T11:33:03.513Z,37.05
2018-07-15T11:35:30.767Z,36.69
2018-07-15T11:37:58.122Z,36.27
2018-07-15T11:40:25.453Z,36.79
2018-07-15T11:42:52.839Z,36.95
2018-07-15T11:45:20.217Z,37.22
2018-07-15T11:47:48.192Z,37.83
2018-07-15T11:50:15.510Z,38.05
2018-07-15T11:52:42.823Z,37.83
2018-07-15T11:55:10.062Z,37.78
2018-07-15T11:57:37.518Z,38.10
2018-07-15T12:00:05.565Z,37.87
2018-07-15T12:02:32.961Z,37.88
2018-07-15T12:05:00.405Z,38.27
2018-07-15T12:07:27.676Z,38.46
2018-07-15T12:09:54.927Z,38.22
2018-07-15T12:12:22.185Z,39.01
2018-07-15T12:14:49.435Z,38.82
2018-07-15T12:17:16.690Z,38.61
2018-07-15T12:19:44.873Z,38.86
2018-07-15T12:22:12.129Z,38.64
2018-07-15T12:24:39.401Z,39.03
2018-07-15T12:27:06.654Z,39.06
2018-07-15T12:29:34.034Z,38.59
2018-07-15T12:32:01.256Z,38.63
2018-07-15T12:34:28.571Z,38.74
2018-07-15T12:36:55.877Z,38.63
2018-07-15T12:39:23.134Z,39.14
2018-07-15T12:41:50.393Z,39.26
2018-07-15T12:44:18.105Z,38.77
2018-07-15T12:46:45.410Z,38.89
2018-07-15T12:49:12.698Z,38.82
2018-07-15T12:51:40.011Z,37.79
2018-07-15T12:54:07.257Z,37.29
2018-07-15T12:59:08.545Z,37.31
2018-07-15T13:01:35.787Z,37.27
2018-07-15T13:04:03.072Z,37.34
2018-07-15T13:06:30.415Z,36.73
2018-07-15T13:08:58.445Z,35.66
2018-07-15T13:11:25.677Z,34.92
2018-07-15T13:13:52.911Z,35.11
2018-07-15T13:16:20.273Z,34.98
2018-07-15T13:18:47.567Z,34.54
2018-07-15T13:21:14.885Z,34.84
2018-07-15T13:23:42.198Z,34.77
2018-07-15T13:26:09.485Z,34.41
2018-07-15T13:28:36.772Z,34.35
2018-07-15T13:31:04.061Z,34.25
2018-07-15T13:33:31.297Z,34.05
2018-07-15T13:35:58.569Z,33.99
2018-07-15T13:38:25.830Z,33.96
2018-07-15T13:40:53.105Z,33.89
2018-07-15T13:43:20.412Z,33.87
2018-07-15T13:45:47.669Z,34.04
2018-07-15T13:48:14.902Z,33.89
2018-07-15T13:50:42.216Z,33.82
2018-07-15T13:53:09.534Z,33.57
2018-07-15T13:55:36.863Z,33.80
2018-07-15T13:58:04.237Z,33.57
2018-07-15T14:00:31.522Z,33.32
2018-07-15T14:02:58.850Z,33.48
2018-07-15T14:05:27.057Z,33.39
2018-07-15T14:07:54.463Z,33.35
2018-07-15T14:10:21.812Z,33.16
2018-07-15T14:12:49.677Z,32.83
2018-07-15T14:15:16.949Z,32.80
2018-07-15T14:17:44.205Z,32.71
2018-07-15T14:20:12.244Z,33.00
2018-07-15T14:22:40.346Z,32.86
2018-07-15T14:25:07.773Z,33.00
2018-07-15T14:27:35.018Z,33.00
2018-07-15T14:30:02.299Z,32.94
2018-07-15T14:32:29.969Z,32.91
2018-07-15T14:34:57.289Z,32.83
2018-07-15T14:37:24.625Z,32.67
2018-07-15T14:39:51.974Z,32.58
2018-07-15T14:42:19.862Z,32.15
2018-07-15T14:44:47.136Z,32.05
2018-07-15T14:47:14.392Z,31.76
2018-07-15T14:49:41.701Z,31.79
2018-07-15T14:52:08.993Z,31.49
2018-07-15T14:54:36.458Z,31.71
2018-07-15T14:57:04.253Z,31.49
2018-07-15T14:59:31.678Z,31.41
2018-07-15T15:01:59.221Z,31.38
2018-07-15T15:04:26.485Z,31.38
2018-07-15T15:06:53.950Z,31.38
2018-07-15T15:09:21.346Z,31.52
2018-07-15T15:11:48.780Z,31.42
2018-07-15T15:14:16.199Z,31.24
2018-07-15T15:16:43.567Z,31.12
2018-07-15T15:19:11.048Z,31.10
2018-07-15T15:21:38.407Z,31.05
2018-07-15T15:24:06.147Z,30.96
2018-07-15T15:26:33.548Z,30.78
2018-07-15T15:29:00.853Z,30.61
2018-07-15T15:31:28.210Z,30.43
2018-07-15T15:33:55.651Z,30.46
2018-07-15T15:36:23.039Z,30.43
2018-07-15T15:38:50.491Z,30.32
2018-07-15T15:41:17.878Z,30.39
2018-07-15T15:43:45.309Z,30.37
2018-07-15T15:46:12.650Z,30.31
2018-07-15T15:48:40.034Z,30.36
2018-07-15T15:51:07.534Z,30.47
2018-07-15T15:53:34.885Z,30.36
2018-07-15T15:56:02.305Z,30.40
2018-07-15T15:58:29.748Z,30.11
2018-07-15T16:00:57.234Z,29.94
2018-07-15T16:03:24.694Z,29.98
2018-07-15T16:05:52.284Z,29.88
2018-07-15T16:08:20.540Z,29.87
2018-07-15T16:10:47.981Z,29.52
2018-07-15T16:13:15.425Z,29.61
2018-07-15T16:15:42.837Z,29.37
2018-07-15T16:18:10.144Z,29.24
2018-07-15T16:20:37.575Z,29.25
2018-07-15T16:23:05.266Z,29.15
2018-07-15T16:25:32.807Z,29.20
2018-07-15T16:28:00.153Z,28.81
2018-07-15T16:30:27.437Z,28.43
2018-07-15T16:32:54.811Z,28.52
2018-07-15T16:35:22.278Z,28.61
2018-07-15T16:37:49.634Z,28.43
2018-07-15T16:40:17.679Z,28.14
2018-07-15T16:42:45.274Z,27.97
2018-07-15T16:45:12.787Z,27.98
2018-07-15T16:47:40.330Z,27.83
2018-07-15T16:50:07.727Z,27.86
2018-07-15T16:52:35.220Z,27.72
2018-07-15T16:55:02.756Z,27.76
2018-07-15T16:57:30.282Z,27.79
2018-07-15T16:59:58.048Z,27.71
2018-07-15T17:02:25.434Z,27.75
2018-07-15T17:04:53.074Z,27.57
2018-07-15T17:07:20.461Z,27.48
2018-07-15T17:09:47.935Z,27.30
2018-07-15T17:12:15.261Z,27.32
2018-07-15T17:14:42.728Z,27.19
2018-07-15T17:17:10.275Z,26.86
2018-07-15T17:19:37.767Z,26.92
2018-07-15T17:22:05.117Z,26.99
2018-07-15T17:24:32.524Z,27.06
2018-07-15T17:26:59.886Z,27.08
2018-07-15T17:29:27.255Z,27.00
2018-07-15T17:31:54.607Z,26.91
2018-07-15T17:34:22.011Z,26.91
2018-07-15T17:36:49.417Z,27.06
2018-07-15T17:39:17.091Z,27.09
2018-07-15T17:41:45.287Z,26.98
2018-07-15T17:44:12.710Z,27.14
2018-07-15T17:46:40.163Z,27.03
2018-07-15T17:49:07.559Z,26.64
2018-07-15T17:51:34.946Z,26.77
2018-07-15T17:54:02.957Z,26.73
2018-07-15T17:56:30.406Z,26.64
2018-07-15T17:58:58.001Z,26.71
2018-07-15T18:01:25.314Z,26.67
2018-07-15T18:03:52.665Z,26.71
2018-07-15T18:06:20.089Z,26.72
2018-07-15T18:08:47.374Z,26.73
2018-07-15T18:11:14.738Z,26.65
2018-07-15T18:13:42.085Z,26.58
2018-07-15T18:16:09.572Z,26.50
2018-07-15T18:18:36.888Z,26.53
2018-07-15T18:21:04.382Z,26.40
2018-07-15T18:23:31.682Z,26.40
2018-07-15T18:25:59.357Z,26.37
2018-07-15T18:28:26.941Z,26.36
2018-07-15T18:30:54.433Z,26.28
2018-07-15T18:33:22.899Z,26.01
2018-07-15T18:35:50.416Z,25.77
2018-07-15T18:38:18.157Z,25.67
2018-07-15T18:40:46.024Z,25.60
2018-07-15T18:43:13.425Z,25.52
2018-07-15T18:45:41.146Z,25.41
2018-07-15T18:48:08.754Z,25.15
2018-07-15T18:50:36.081Z,25.16
2018-07-15T18:53:03.825Z,25.13
2018-07-15T18:55:31.706Z,24.77
2018-07-15T18:57:59.169Z,24.67
2018-07-15T19:00:26.593Z,24.74
2018-07-15T19:02:53.915Z,24.77
2018-07-15T19:05:21.179Z,24.74
2018-07-15T19:07:48.622Z,24.58
2018-07-15T19:10:16.080Z,24.58
2018-07-15T19:12:43.600Z,24.51
2018-07-15T19:15:10.930Z,24.42
2018-07-15T19:17:39.069Z,24.36
2018-07-15T19:20:06.588Z,24.27
2018-07-15T19:22:33.979Z,24.22
2018-07-15T19:25:01.490Z,24.16
2018-07-15T19:27:28.915Z,24.07
2018-07-15T19:29:56.328Z,24.03
2018-07-15T19:32:23.705Z,23.98
2018-07-15T19:34:51.192Z,23.93
2018-07-15T19:37:18.646Z,23.83
2018-07-15T19:39:46.306Z,23.76
2018-07-15T19:42:13.744Z,23.68
2018-07-15T19:44:41.221Z,23.61
2018-07-15T19:47:08.681Z,23.49
2018-07-15T19:49:36.107Z,23.43
2018-07-15T19:52:03.506Z,23.33
2018-07-15T19:54:31.133Z,23.27
2018-07-15T19:56:58.583Z,23.20
2018-07-15T19:59:26.055Z,23.11
2018-07-15T20:01:53.554Z,23.03
2018-07-15T20:04:20.905Z,22.96
2018-07-15T20:06:49.147Z,22.91
2018-07-15T20:09:16.498Z,22.86
2018-07-15T20:11:43.894Z,22.77
2018-07-15T20:14:11.319Z,22.73
2018-07-15T20:16:38.744Z,22.66
2018-07-15T20:19:06.780Z,22.62
2018-07-15T20:21:34.162Z,22.54
2018-07-15T20:24:01.660Z,22.54
2018-07-15T20:26:29.204Z,22.49
2018-07-15T20:28:56.615Z,22.46
2018-07-15T20:31:24.054Z,22.42
2018-07-15T20:33:52.271Z,22.39
2018-07-15T20:36:19.569Z,22.33
2018-07-15T20:38:47.781Z,22.28
2018-07-15T20:41:15.170Z,22.23
2018-07-15T20:43:43.187Z,22.17
2018-07-15T20:46:10.601Z,22.12
2018-07-15T20:48:38.095Z,22.05
2018-07-15T20:51:05.314Z,22.01
2018-07-15T20:53:33.049Z,21.97
2018-07-15T20:56:00.702Z,21.96
2018-07-15T20:58:28.143Z,21.91
2018-07-15T21:00:55.628Z,21.92
2018-07-15T21:03:23.137Z,21.87
2018-07-15T21:05:50.824Z,21.79
2018-07-15T21:08:18.179Z,21.73
2018-07-15T21:10:45.508Z,21.67
2018-07-15T21:13:12.963Z,21.63
2018-07-15T21:15:40.358Z,21.58
2018-07-15T21:18:07.814Z,21.54
2018-07-15T21:20:35.153Z,21.51
2018-07-15T21:23:02.618Z,21.48
2018-07-15T21:25:30.048Z,21.43
2018-07-15T21:27:57.368Z,21.37
2018-07-15T21:30:24.688Z,21.34
2018-07-15T21:32:51.990Z,21.30
2018-07-15T21:35:19.584Z,21.25
2018-07-15T21:37:46.923Z,21.21
2018-07-15T21:40:14.372Z,21.19
2018-07-15T21:42:41.649Z,21.15
2018-07-15T21:45:09.005Z,21.21
2018-07-15T21:47:36.346Z,21.19
2018-07-15T21:50:03.847Z,21.18
2018-07-15T21:52:31.146Z,21.18
2018-07-15T21:54:58.448Z,21.15
2018-07-15T21:57:25.838Z,21.15
2018-07-15T21:59:53.196Z,21.13
2018-07-15T22:02:20.776Z,21.06
2018-07-15T22:04:48.120Z,21.01
2018-07-15T22:07:26.642Z,21.00
2018-07-15T22:10:05.333Z,20.95
2018-07-15T22:12:32.653Z,20.91
2018-07-15T22:15:00.088Z,20.89
2018-07-15T22:17:27.594Z,20.83
2018-07-15T22:19:54.934Z,20.83
2018-07-15T22:22:22.214Z,20.75
2018-07-15T22:24:49.489Z,20.71
2018-07-15T22:27:16.801Z,20.69
2018-07-15T22:29:44.192Z,20.65
2018-07-15T22:32:11.552Z,20.62
2018-07-15T22:34:38.831Z,20.61
2018-07-15T22:37:06.169Z,20.56
2018-07-15T22:39:33.695Z,20.56
2018-07-15T22:42:01.118Z,20.51
2018-07-15T22:44:28.361Z,20.50
2018-07-15T22:46:55.618Z,20.49
2018-07-15T22:49:22.955Z,20.45
2018-07-15T22:51:50.326Z,20.41
2018-07-15T22:54:17.589Z,20.43
2018-07-15T22:56:44.888Z,20.41
2018-07-15T22:59:12.474Z,20.37
2018-07-15T23:01:39.803Z,20.36
2018-07-15T23:04:07.090Z,20.33
2018-07-15T23:06:36.256Z,20.31
2018-07-15T23:09:04.138Z,20.27
2018-07-15T23:11:31.377Z,20.25
2018-07-15T23:13:58.700Z,20.20
2018-07-15T23:16:25.991Z,20.19
2018-07-15T23:18:53.994Z,20.17
2018-07-15T23:21:21.235Z,20.12
2018-07-15T23:23:48.465Z,20.09
2018-07-15T23:26:15.794Z,20.08
2018-07-15T23:28:43.340Z,20.04
2018-07-15T23:31:10.665Z,20.05
2018-07-15T23:33:38.116Z,20.05
2018-07-15T23:36:05.525Z,20.05
2018-07-15T23:38:32.795Z,20.01
2018-07-15T23:41:00.109Z,20.04
2018-07-15T23:43:27.407Z,20.02
2018-07-15T23:45:54.670Z,20.02
2018-07-15T23:48:21.958Z,20.00
2018-07-15T23:50:49.274Z,19.97
2018-07-15T23:53:16.529Z,19.97
2018-07-15T23:55:43.882Z,19.94
2018-07-15T23:58:11.163Z,19.94
